sensor_id;sensor_type;location;lat;lon;timestamp;pressure;altitude;pressure_sealevel;temperature;humidity
10668;BME280;5382;42.136;24.796;2023-12-14T00:01:53;99247.59;;;4.07;100.00
10668;BME280;5382;42.136;24.796;2023-12-14T00:04:21;99233.09;;;4.01;100.00
10668;BME280;5382;42.136;24.796;2023-12-14T00:06:49;99235.75;;;4.15;100.00
10668;BME280;5382;42.136;24.796;2023-12-14T00:09:16;99231.66;;;3.96;100.00
10668;BME280;5382;42.136;24.796;2023-12-14T00:11:42;99222.09;;;3.94;100.00
10668;BME280;5382;42.136;24.796;2023-12-14T00:14:09;99229.13;;;3.94;100.00
10668;BME280;5382;42.136;24.796;2023-12-14T00:16:36;99227.25;;;3.96;100.00
10668;BME280;5382;42.136;24.796;2023-12-14T00:19:03;99242.44;;;3.89;100.00
10668;BME280;5382;42.136;24.796;2023-12-14T00:21:32;99229.97;;;3.94;100.00
10668;BME280;5382;42.136;24.796;2023-12-14T00:23:58;99242.31;;;3.92;100.00
10668;BME280;5382;42.136;24.796;2023-12-14T00:26:25;99236.06;;;3.95;100.00
10668;BME280;5382;42.136;24.796;2023-12-14T00:28:52;99228.53;;;3.89;100.00
10668;BME280;5382;42.136;24.796;2023-12-14T00:31:19;99222.38;;;3.90;100.00
10668;BME280;5382;42.136;24.796;2023-12-14T00:33:46;99230.13;;;3.91;100.00
10668;BME280;5382;42.136;24.796;2023-12-14T00:36:18;99239.75;;;3.91;100.00
10668;BME280;5382;42.136;24.796;2023-12-14T00:38:46;99248.69;;;3.87;100.00
10668;BME280;5382;42.136;24.796;2023-12-14T00:41:13;99250.41;;;3.88;100.00
10668;BME280;5382;42.136;24.796;2023-12-14T00:43:40;99243.97;;;3.78;100.00
10668;BME280;5382;42.136;24.796;2023-12-14T00:46:07;99243.56;;;3.85;100.00
10668;BME280;5382;42.136;24.796;2023-12-14T00:48:36;99254.53;;;3.92;100.00
10668;BME280;5382;42.136;24.796;2023-12-14T00:51:04;99241.28;;;3.95;100.00
10668;BME280;5382;42.136;24.796;2023-12-14T00:53:31;99244.81;;;3.94;100.00
10668;BME280;5382;42.136;24.796;2023-12-14T00:55:59;99242.78;;;3.99;100.00
10668;BME280;5382;42.136;24.796;2023-12-14T00:58:26;99257.00;;;3.95;100.00
10668;BME280;5382;42.136;24.796;2023-12-14T01:00:53;99233.84;;;4.03;100.00
10668;BME280;5382;42.136;24.796;2023-12-14T01:03:20;99233.34;;;3.97;100.00
10668;BME280;5382;42.136;24.796;2023-12-14T01:05:47;99204.72;;;4.09;100.00
10668;BME280;5382;42.136;24.796;2023-12-14T01:08:14;99220.06;;;4.00;100.00
10668;BME280;5382;42.136;24.796;2023-12-14T01:10:41;99161.09;;;3.78;100.00
10668;BME280;5382;42.136;24.796;2023-12-14T01:13:10;99190.63;;;3.96;100.00
10668;BME280;5382;42.136;24.796;2023-12-14T01:15:36;99166.84;;;3.85;100.00
10668;BME280;5382;42.136;24.796;2023-12-14T01:18:03;99184.38;;;3.99;100.00
10668;BME280;5382;42.136;24.796;2023-12-14T01:20:31;99191.28;;;4.00;100.00
10668;BME280;5382;42.136;24.796;2023-12-14T01:22:58;99195.69;;;3.99;100.00
10668;BME280;5382;42.136;24.796;2023-12-14T01:25:25;99195.19;;;4.08;100.00
10668;BME280;5382;42.136;24.796;2023-12-14T01:27:52;99200.66;;;4.04;100.00
10668;BME280;5382;42.136;24.796;2023-12-14T01:30:20;99185.22;;;3.99;100.00
10668;BME280;5382;42.136;24.796;2023-12-14T01:32:47;99187.16;;;3.96;100.00
10668;BME280;5382;42.136;24.796;2023-12-14T01:35:15;99192.28;;;4.13;100.00
10668;BME280;5382;42.136;24.796;2023-12-14T01:37:42;99196.84;;;4.09;100.00
10668;BME280;5382;42.136;24.796;2023-12-14T01:40:10;99183.00;;;4.07;100.00
10668;BME280;5382;42.136;24.796;2023-12-14T01:42:37;99202.00;;;4.11;100.00
10668;BME280;5382;42.136;24.796;2023-12-14T01:45:04;99188.16;;;4.09;100.00
10668;BME280;5382;42.136;24.796;2023-12-14T01:47:33;99195.47;;;4.18;100.00
10668;BME280;5382;42.136;24.796;2023-12-14T01:50:01;99205.66;;;4.08;100.00
10668;BME280;5382;42.136;24.796;2023-12-14T01:52:28;99189.59;;;4.14;100.00
10668;BME280;5382;42.136;24.796;2023-12-14T01:54:54;99198.38;;;4.13;100.00
10668;BME280;5382;42.136;24.796;2023-12-14T01:57:24;99200.41;;;4.08;100.00
10668;BME280;5382;42.136;24.796;2023-12-14T01:59:51;99185.97;;;4.01;100.00
10668;BME280;5382;42.136;24.796;2023-12-14T02:02:19;99191.63;;;4.09;100.00
10668;BME280;5382;42.136;24.796;2023-12-14T02:04:48;99182.09;;;4.08;100.00
10668;BME280;5382;42.136;24.796;2023-12-14T02:07:15;99189.19;;;4.06;100.00
10668;BME280;5382;42.136;24.796;2023-12-14T02:09:42;99183.84;;;4.08;100.00
10668;BME280;5382;42.136;24.796;2023-12-14T02:12:08;99184.88;;;4.05;100.00
10668;BME280;5382;42.136;24.796;2023-12-14T02:14:35;99187.03;;;4.13;100.00
10668;BME280;5382;42.136;24.796;2023-12-14T02:17:03;99197.38;;;4.16;100.00
10668;BME280;5382;42.136;24.796;2023-12-14T02:19:31;99171.84;;;4.20;100.00
10668;BME280;5382;42.136;24.796;2023-12-14T02:21:59;99185.16;;;4.31;100.00
10668;BME280;5382;42.136;24.796;2023-12-14T02:24:27;99175.69;;;4.28;100.00
10668;BME280;5382;42.136;24.796;2023-12-14T02:26:54;99175.56;;;4.15;100.00
10668;BME280;5382;42.136;24.796;2023-12-14T02:29:21;99176.28;;;4.03;100.00
10668;BME280;5382;42.136;24.796;2023-12-14T02:31:48;99184.53;;;4.11;100.00
10668;BME280;5382;42.136;24.796;2023-12-14T02:34:17;99169.78;;;4.25;100.00
10668;BME280;5382;42.136;24.796;2023-12-14T02:36:45;99179.38;;;4.40;100.00
10668;BME280;5382;42.136;24.796;2023-12-14T02:39:12;99180.03;;;4.44;100.00
10668;BME280;5382;42.136;24.796;2023-12-14T02:41:41;99185.38;;;4.42;100.00
10668;BME280;5382;42.136;24.796;2023-12-14T02:44:08;99183.09;;;4.36;100.00
10668;BME280;5382;42.136;24.796;2023-12-14T02:46:35;99181.81;;;4.43;100.00
10668;BME280;5382;42.136;24.796;2023-12-14T02:49:02;99175.09;;;4.39;100.00
10668;BME280;5382;42.136;24.796;2023-12-14T02:51:29;99177.53;;;4.42;100.00
10668;BME280;5382;42.136;24.796;2023-12-14T02:53:56;99181.16;;;4.40;100.00
10668;BME280;5382;42.136;24.796;2023-12-14T02:56:23;99174.72;;;4.45;100.00
10668;BME280;5382;42.136;24.796;2023-12-14T02:58:53;99172.03;;;4.47;100.00
10668;BME280;5382;42.136;24.796;2023-12-14T03:01:20;99169.16;;;4.35;100.00
10668;BME280;5382;42.136;24.796;2023-12-14T03:03:47;99178.72;;;4.36;100.00
10668;BME280;5382;42.136;24.796;2023-12-14T03:06:15;99179.75;;;4.34;100.00
10668;BME280;5382;42.136;24.796;2023-12-14T03:08:41;99180.78;;;4.31;100.00
10668;BME280;5382;42.136;24.796;2023-12-14T03:11:09;99187.25;;;4.40;100.00
10668;BME280;5382;42.136;24.796;2023-12-14T03:13:36;99170.78;;;4.38;100.00
10668;BME280;5382;42.136;24.796;2023-12-14T03:16:05;99171.91;;;4.34;100.00
10668;BME280;5382;42.136;24.796;2023-12-14T03:18:32;99170.94;;;4.35;100.00
10668;BME280;5382;42.136;24.796;2023-12-14T03:20:59;99174.84;;;4.28;100.00
10668;BME280;5382;42.136;24.796;2023-12-14T03:23:26;99182.53;;;4.31;100.00
10668;BME280;5382;42.136;24.796;2023-12-14T03:25:55;99188.78;;;4.28;100.00
10668;BME280;5382;42.136;24.796;2023-12-14T03:28:22;99191.59;;;4.25;100.00
10668;BME280;5382;42.136;24.796;2023-12-14T03:30:49;99180.34;;;4.23;100.00
10668;BME280;5382;42.136;24.796;2023-12-14T03:33:18;99177.44;;;4.13;100.00
10668;BME280;5382;42.136;24.796;2023-12-14T03:35:45;99183.84;;;4.24;100.00
10668;BME280;5382;42.136;24.796;2023-12-14T03:38:13;99190.38;;;4.31;100.00
10668;BME280;5382;42.136;24.796;2023-12-14T03:40:40;99180.66;;;4.33;100.00
10668;BME280;5382;42.136;24.796;2023-12-14T03:43:07;99188.88;;;4.27;100.00
10668;BME280;5382;42.136;24.796;2023-12-14T03:45:34;99190.16;;;4.20;100.00
10668;BME280;5382;42.136;24.796;2023-12-14T03:48:01;99191.19;;;4.17;100.00
10668;BME280;5382;42.136;24.796;2023-12-14T03:50:30;99193.88;;;4.15;100.00
10668;BME280;5382;42.136;24.796;2023-12-14T03:52:58;99173.03;;;4.14;100.00
10668;BME280;5382;42.136;24.796;2023-12-14T03:55:25;99166.97;;;4.13;100.00
10668;BME280;5382;42.136;24.796;2023-12-14T03:57:53;99178.41;;;4.27;100.00
10668;BME280;5382;42.136;24.796;2023-12-14T04:00:20;99181.63;;;4.32;100.00
10668;BME280;5382;42.136;24.796;2023-12-14T04:02:47;99174.09;;;4.26;100.00
10668;BME280;5382;42.136;24.796;2023-12-14T04:05:14;99186.00;;;4.31;100.00
10668;BME280;5382;42.136;24.796;2023-12-14T04:07:43;99160.41;;;4.36;100.00
10668;BME280;5382;42.136;24.796;2023-12-14T04:10:11;99164.03;;;4.34;100.00
10668;BME280;5382;42.136;24.796;2023-12-14T04:12:39;99169.28;;;4.34;100.00
10668;BME280;5382;42.136;24.796;2023-12-14T04:15:07;99162.03;;;4.23;100.00
10668;BME280;5382;42.136;24.796;2023-12-14T04:17:34;99167.75;;;4.30;100.00
10668;BME280;5382;42.136;24.796;2023-12-14T04:20:02;99166.16;;;4.27;100.00
10668;BME280;5382;42.136;24.796;2023-12-14T04:22:31;99163.03;;;4.21;100.00
10668;BME280;5382;42.136;24.796;2023-12-14T04:25:00;99170.31;;;4.15;100.00
10668;BME280;5382;42.136;24.796;2023-12-14T04:27:27;99180.78;;;4.15;100.00
10668;BME280;5382;42.136;24.796;2023-12-14T04:29:55;99181.56;;;4.18;100.00
10668;BME280;5382;42.136;24.796;2023-12-14T04:32:22;99172.63;;;4.06;100.00
10668;BME280;5382;42.136;24.796;2023-12-14T04:34:49;99181.97;;;4.10;100.00
10668;BME280;5382;42.136;24.796;2023-12-14T04:37:16;99194.81;;;4.14;100.00
10668;BME280;5382;42.136;24.796;2023-12-14T04:39:43;99185.28;;;4.13;100.00
10668;BME280;5382;42.136;24.796;2023-12-14T04:42:13;99182.00;;;3.94;100.00
10668;BME280;5382;42.136;24.796;2023-12-14T04:44:40;99177.53;;;3.96;100.00
10668;BME280;5382;42.136;24.796;2023-12-14T04:47:08;99178.31;;;3.98;100.00
10668;BME280;5382;42.136;24.796;2023-12-14T04:49:35;99161.75;;;3.98;100.00
10668;BME280;5382;42.136;24.796;2023-12-14T04:52:02;99165.22;;;3.98;100.00
10668;BME280;5382;42.136;24.796;2023-12-14T04:54:30;99172.72;;;4.04;100.00
10668;BME280;5382;42.136;24.796;2023-12-14T04:56:57;99171.28;;;3.99;100.00
10668;BME280;5382;42.136;24.796;2023-12-14T04:59:25;99160.63;;;4.02;100.00
10668;BME280;5382;42.136;24.796;2023-12-14T05:01:53;99164.03;;;4.04;100.00
10668;BME280;5382;42.136;24.796;2023-12-14T05:04:20;99163.75;;;4.08;100.00
10668;BME280;5382;42.136;24.796;2023-12-14T05:06:47;99154.81;;;3.97;100.00
10668;BME280;5382;42.136;24.796;2023-12-14T05:09:14;99176.78;;;3.94;100.00
10668;BME280;5382;42.136;24.796;2023-12-14T05:11:42;99172.91;;;3.85;100.00
10668;BME280;5382;42.136;24.796;2023-12-14T05:14:09;99164.91;;;3.72;100.00
10668;BME280;5382;42.136;24.796;2023-12-14T05:16:38;99180.34;;;3.77;100.00
10668;BME280;5382;42.136;24.796;2023-12-14T05:19:05;99187.50;;;3.74;100.00
10668;BME280;5382;42.136;24.796;2023-12-14T05:21:32;99169.78;;;3.63;100.00
10668;BME280;5382;42.136;24.796;2023-12-14T05:23:59;99170.03;;;3.58;100.00
10668;BME280;5382;42.136;24.796;2023-12-14T05:26:26;99157.19;;;3.38;100.00
10668;BME280;5382;42.136;24.796;2023-12-14T05:28:53;99147.31;;;3.11;100.00
10668;BME280;5382;42.136;24.796;2023-12-14T05:31:20;99152.78;;;3.06;100.00
10668;BME280;5382;42.136;24.796;2023-12-14T05:33:49;99171.06;;;3.06;100.00
10668;BME280;5382;42.136;24.796;2023-12-14T05:36:15;99180.84;;;3.03;100.00
10668;BME280;5382;42.136;24.796;2023-12-14T05:38:43;99179.16;;;3.02;100.00
10668;BME280;5382;42.136;24.796;2023-12-14T05:41:10;99181.47;;;3.08;100.00
10668;BME280;5382;42.136;24.796;2023-12-14T05:43:39;99170.19;;;3.23;100.00
10668;BME280;5382;42.136;24.796;2023-12-14T05:46:06;99175.31;;;3.25;100.00
10668;BME280;5382;42.136;24.796;2023-12-14T05:48:33;99186.78;;;3.22;100.00
10668;BME280;5382;42.136;24.796;2023-12-14T05:51:03;99185.94;;;3.22;100.00
10668;BME280;5382;42.136;24.796;2023-12-14T05:53:30;99178.09;;;3.22;100.00
10668;BME280;5382;42.136;24.796;2023-12-14T05:56:02;99202.16;;;3.28;100.00
10668;BME280;5382;42.136;24.796;2023-12-14T05:58:29;99187.75;;;3.37;100.00
10668;BME280;5382;42.136;24.796;2023-12-14T06:00:56;99188.44;;;3.41;100.00
10668;BME280;5382;42.136;24.796;2023-12-14T06:03:23;99183.03;;;3.44;100.00
10668;BME280;5382;42.136;24.796;2023-12-14T06:05:51;99189.47;;;3.54;100.00
10668;BME280;5382;42.136;24.796;2023-12-14T06:08:20;99209.09;;;3.61;100.00
10668;BME280;5382;42.136;24.796;2023-12-14T06:10:47;99195.72;;;3.67;100.00
10668;BME280;5382;42.136;24.796;2023-12-14T06:13:14;99197.06;;;3.75;100.00
10668;BME280;5382;42.136;24.796;2023-12-14T06:15:41;99198.75;;;3.76;100.00
10668;BME280;5382;42.136;24.796;2023-12-14T06:18:08;99190.97;;;3.74;100.00
10668;BME280;5382;42.136;24.796;2023-12-14T06:20:35;99207.94;;;3.83;100.00
10668;BME280;5382;42.136;24.796;2023-12-14T06:23:02;99187.66;;;3.86;100.00
10668;BME280;5382;42.136;24.796;2023-12-14T06:25:31;99196.09;;;3.91;100.00
10668;BME280;5382;42.136;24.796;2023-12-14T06:27:58;99195.09;;;3.94;100.00
10668;BME280;5382;42.136;24.796;2023-12-14T06:30:25;99201.50;;;4.04;100.00
10668;BME280;5382;42.136;24.796;2023-12-14T06:32:52;99173.25;;;3.95;100.00
10668;BME280;5382;42.136;24.796;2023-12-14T06:35:19;99201.25;;;4.09;100.00
10668;BME280;5382;42.136;24.796;2023-12-14T06:37:47;99201.16;;;4.10;100.00
10668;BME280;5382;42.136;24.796;2023-12-14T06:40:14;99210.94;;;4.23;100.00
10668;BME280;5382;42.136;24.796;2023-12-14T06:42:42;99196.78;;;4.11;100.00
10668;BME280;5382;42.136;24.796;2023-12-14T06:45:10;99204.78;;;4.24;100.00
10668;BME280;5382;42.136;24.796;2023-12-14T06:47:37;99212.84;;;4.35;100.00
10668;BME280;5382;42.136;24.796;2023-12-14T06:50:04;99197.81;;;4.38;100.00
10668;BME280;5382;42.136;24.796;2023-12-14T06:52:31;99208.69;;;4.47;100.00
10668;BME280;5382;42.136;24.796;2023-12-14T06:54:58;99210.38;;;4.48;100.00
10668;BME280;5382;42.136;24.796;2023-12-14T06:57:25;99210.69;;;4.57;100.00
10668;BME280;5382;42.136;24.796;2023-12-14T06:59:56;99206.59;;;4.68;100.00
10668;BME280;5382;42.136;24.796;2023-12-14T07:02:23;99224.38;;;4.77;100.00
10668;BME280;5382;42.136;24.796;2023-12-14T07:04:49;99201.94;;;4.73;100.00
10668;BME280;5382;42.136;24.796;2023-12-14T07:07:16;99192.97;;;4.91;100.00
10668;BME280;5382;42.136;24.796;2023-12-14T07:09:44;99181.25;;;4.82;100.00
10668;BME280;5382;42.136;24.796;2023-12-14T07:12:11;99194.84;;;4.89;100.00
10668;BME280;5382;42.136;24.796;2023-12-14T07:14:39;99204.59;;;5.01;100.00
10668;BME280;5382;42.136;24.796;2023-12-14T07:17:07;99176.41;;;5.05;100.00
10668;BME280;5382;42.136;24.796;2023-12-14T07:19:34;99198.44;;;5.17;100.00
10668;BME280;5382;42.136;24.796;2023-12-14T07:22:01;99195.91;;;5.30;100.00
10668;BME280;5382;42.136;24.796;2023-12-14T07:24:29;99204.56;;;5.44;100.00
10668;BME280;5382;42.136;24.796;2023-12-14T07:26:56;99215.16;;;5.57;100.00
10668;BME280;5382;42.136;24.796;2023-12-14T07:29:23;99203.38;;;5.50;100.00
10668;BME280;5382;42.136;24.796;2023-12-14T07:31:52;99195.03;;;5.43;100.00
10668;BME280;5382;42.136;24.796;2023-12-14T07:34:20;99208.72;;;5.63;100.00
10668;BME280;5382;42.136;24.796;2023-12-14T07:36:47;99219.47;;;5.58;100.00
10668;BME280;5382;42.136;24.796;2023-12-14T07:39:15;99194.63;;;5.50;100.00
10668;BME280;5382;42.136;24.796;2023-12-14T07:41:42;99221.34;;;5.56;100.00
10668;BME280;5382;42.136;24.796;2023-12-14T07:44:09;99203.63;;;5.60;100.00
10668;BME280;5382;42.136;24.796;2023-12-14T07:46:36;99193.03;;;5.61;100.00
10668;BME280;5382;42.136;24.796;2023-12-14T07:49:06;99209.00;;;5.85;100.00
10668;BME280;5382;42.136;24.796;2023-12-14T07:51:35;99225.81;;;5.97;100.00
10668;BME280;5382;42.136;24.796;2023-12-14T07:54:02;99229.91;;;6.01;100.00
10668;BME280;5382;42.136;24.796;2023-12-14T07:56:29;99218.28;;;6.05;100.00
10668;BME280;5382;42.136;24.796;2023-12-14T07:58:58;99214.63;;;6.08;100.00
10668;BME280;5382;42.136;24.796;2023-12-14T08:01:25;99221.59;;;6.22;100.00
10668;BME280;5382;42.136;24.796;2023-12-14T08:03:52;99236.53;;;6.21;100.00
10668;BME280;5382;42.136;24.796;2023-12-14T08:06:19;99250.22;;;6.26;100.00
10668;BME280;5382;42.136;24.796;2023-12-14T08:08:48;99238.56;;;6.30;100.00
10668;BME280;5382;42.136;24.796;2023-12-14T08:11:15;99221.47;;;6.38;100.00
10668;BME280;5382;42.136;24.796;2023-12-14T08:13:42;99228.16;;;6.29;100.00
10668;BME280;5382;42.136;24.796;2023-12-14T08:16:09;99223.13;;;6.39;100.00
10668;BME280;5382;42.136;24.796;2023-12-14T08:18:37;99219.91;;;6.48;100.00
10668;BME280;5382;42.136;24.796;2023-12-14T08:21:04;99228.03;;;6.58;100.00
10668;BME280;5382;42.136;24.796;2023-12-14T08:23:31;99208.88;;;6.55;100.00
10668;BME280;5382;42.136;24.796;2023-12-14T08:25:59;99225.22;;;6.73;100.00
10668;BME280;5382;42.136;24.796;2023-12-14T08:28:26;99222.06;;;6.81;100.00
10668;BME280;5382;42.136;24.796;2023-12-14T08:30:53;99223.03;;;6.93;100.00
10668;BME280;5382;42.136;24.796;2023-12-14T08:33:20;99230.28;;;7.02;100.00
10668;BME280;5382;42.136;24.796;2023-12-14T08:35:47;99224.72;;;7.07;100.00
10668;BME280;5382;42.136;24.796;2023-12-14T08:38:14;99222.31;;;7.16;100.00
10668;BME280;5382;42.136;24.796;2023-12-14T08:40:42;99213.97;;;7.22;100.00
10668;BME280;5382;42.136;24.796;2023-12-14T08:43:10;99207.16;;;7.07;100.00
10668;BME280;5382;42.136;24.796;2023-12-14T08:45:37;99234.84;;;7.26;100.00
10668;BME280;5382;42.136;24.796;2023-12-14T08:48:05;99225.03;;;7.28;100.00
10668;BME280;5382;42.136;24.796;2023-12-14T08:50:32;99232.22;;;7.26;100.00
10668;BME280;5382;42.136;24.796;2023-12-14T08:52:59;99228.91;;;7.48;100.00
10668;BME280;5382;42.136;24.796;2023-12-14T08:55:27;99222.19;;;7.56;100.00
10668;BME280;5382;42.136;24.796;2023-12-14T08:57:55;99236.06;;;7.58;100.00
10668;BME280;5382;42.136;24.796;2023-12-14T09:00:23;99228.38;;;7.55;100.00
10668;BME280;5382;42.136;24.796;2023-12-14T09:02:50;99233.94;;;7.76;100.00
10668;BME280;5382;42.136;24.796;2023-12-14T09:05:18;99239.38;;;7.86;100.00
10668;BME280;5382;42.136;24.796;2023-12-14T09:07:46;99246.84;;;7.92;100.00
10668;BME280;5382;42.136;24.796;2023-12-14T09:10:13;99239.88;;;8.04;100.00
10668;BME280;5382;42.136;24.796;2023-12-14T09:12:40;99232.28;;;8.23;100.00
10668;BME280;5382;42.136;24.796;2023-12-14T09:15:08;99224.06;;;8.28;100.00
10668;BME280;5382;42.136;24.796;2023-12-14T09:17:36;99225.41;;;8.34;100.00
10668;BME280;5382;42.136;24.796;2023-12-14T09:20:05;99219.50;;;8.43;100.00
10668;BME280;5382;42.136;24.796;2023-12-14T09:22:32;99212.59;;;8.53;100.00
10668;BME280;5382;42.136;24.796;2023-12-14T09:24:59;99188.16;;;8.38;100.00
10668;BME280;5382;42.136;24.796;2023-12-14T09:27:26;99188.59;;;8.45;100.00
10668;BME280;5382;42.136;24.796;2023-12-14T09:29:53;99183.81;;;8.50;100.00
10668;BME280;5382;42.136;24.796;2023-12-14T09:32:20;99182.66;;;8.65;100.00
10668;BME280;5382;42.136;24.796;2023-12-14T09:34:48;99185.25;;;8.54;100.00
10668;BME280;5382;42.136;24.796;2023-12-14T09:37:17;99170.25;;;8.43;100.00
10668;BME280;5382;42.136;24.796;2023-12-14T09:39:44;99177.47;;;8.52;100.00
10668;BME280;5382;42.136;24.796;2023-12-14T09:42:12;99175.34;;;8.58;100.00
10668;BME280;5382;42.136;24.796;2023-12-14T09:44:43;99173.53;;;8.58;100.00
10668;BME280;5382;42.136;24.796;2023-12-14T09:47:11;99153.78;;;8.75;100.00
10668;BME280;5382;42.136;24.796;2023-12-14T09:49:38;99157.97;;;8.78;100.00
10668;BME280;5382;42.136;24.796;2023-12-14T09:52:10;99151.41;;;8.83;100.00
10668;BME280;5382;42.136;24.796;2023-12-14T09:54:39;99160.00;;;8.63;100.00
10668;BME280;5382;42.136;24.796;2023-12-14T09:57:04;99147.06;;;8.71;100.00
10668;BME280;5382;42.136;24.796;2023-12-14T09:59:31;99153.09;;;8.95;100.00
10668;BME280;5382;42.136;24.796;2023-12-14T10:02:11;99156.84;;;9.04;100.00
10668;BME280;5382;42.136;24.796;2023-12-14T10:04:39;99147.47;;;9.23;100.00
10668;BME280;5382;42.136;24.796;2023-12-14T10:07:06;99153.84;;;9.20;100.00
10668;BME280;5382;42.136;24.796;2023-12-14T10:09:36;99145.44;;;9.15;100.00
10668;BME280;5382;42.136;24.796;2023-12-14T10:12:05;99138.50;;;9.14;100.00
10668;BME280;5382;42.136;24.796;2023-12-14T10:14:33;99140.63;;;9.43;100.00
10668;BME280;5382;42.136;24.796;2023-12-14T10:17:14;99139.13;;;9.72;100.00
10668;BME280;5382;42.136;24.796;2023-12-14T10:19:42;99135.13;;;9.89;100.00
10668;BME280;5382;42.136;24.796;2023-12-14T10:22:10;99135.25;;;9.88;100.00
10668;BME280;5382;42.136;24.796;2023-12-14T10:24:38;99126.28;;;10.11;100.00
10668;BME280;5382;42.136;24.796;2023-12-14T10:27:06;99129.25;;;9.86;100.00
10668;BME280;5382;42.136;24.796;2023-12-14T10:29:33;99131.97;;;9.63;100.00
10668;BME280;5382;42.136;24.796;2023-12-14T10:32:06;99129.03;;;9.77;100.00
10668;BME280;5382;42.136;24.796;2023-12-14T10:34:34;99115.22;;;10.17;100.00
10668;BME280;5382;42.136;24.796;2023-12-14T10:37:04;99115.91;;;10.52;100.00
10668;BME280;5382;42.136;24.796;2023-12-14T10:39:33;99100.84;;;10.73;100.00
10668;BME280;5382;42.136;24.796;2023-12-14T10:42:02;99104.72;;;10.90;100.00
10668;BME280;5382;42.136;24.796;2023-12-14T10:44:33;99110.47;;;10.74;100.00
10668;BME280;5382;42.136;24.796;2023-12-14T10:47:03;99099.09;;;10.83;100.00
10668;BME280;5382;42.136;24.796;2023-12-14T10:49:31;99100.56;;;10.97;100.00
10668;BME280;5382;42.136;24.796;2023-12-14T10:52:00;99107.59;;;11.18;100.00
10668;BME280;5382;42.136;24.796;2023-12-14T10:54:32;99110.22;;;11.08;100.00
10668;BME280;5382;42.136;24.796;2023-12-14T10:57:03;99124.19;;;11.20;100.00
10668;BME280;5382;42.136;24.796;2023-12-14T10:59:31;99121.94;;;11.15;100.00
10668;BME280;5382;42.136;24.796;2023-12-14T11:01:58;99113.25;;;11.34;100.00
10668;BME280;5382;42.136;24.796;2023-12-14T11:04:26;99114.41;;;11.41;100.00
10668;BME280;5382;42.136;24.796;2023-12-14T11:06:54;99107.94;;;11.34;100.00
10668;BME280;5382;42.136;24.796;2023-12-14T11:09:23;99100.13;;;11.32;100.00
10668;BME280;5382;42.136;24.796;2023-12-14T11:11:56;99098.66;;;11.49;100.00
10668;BME280;5382;42.136;24.796;2023-12-14T11:14:25;99097.50;;;11.42;100.00
10668;BME280;5382;42.136;24.796;2023-12-14T11:16:54;99088.81;;;11.30;100.00
10668;BME280;5382;42.136;24.796;2023-12-14T11:19:26;99089.84;;;11.39;100.00
10668;BME280;5382;42.136;24.796;2023-12-14T11:22:24;99090.25;;;11.34;100.00
10668;BME280;5382;42.136;24.796;2023-12-14T11:24:53;99096.25;;;11.37;100.00
10668;BME280;5382;42.136;24.796;2023-12-14T11:27:25;99092.56;;;11.28;100.00
10668;BME280;5382;42.136;24.796;2023-12-14T11:29:54;99100.69;;;11.26;100.00
10668;BME280;5382;42.136;24.796;2023-12-14T11:32:22;99108.56;;;11.17;100.00
10668;BME280;5382;42.136;24.796;2023-12-14T11:34:52;99090.34;;;11.23;100.00
10668;BME280;5382;42.136;24.796;2023-12-14T11:37:19;99092.16;;;11.23;100.00
10668;BME280;5382;42.136;24.796;2023-12-14T11:39:50;99100.50;;;11.18;100.00
10668;BME280;5382;42.136;24.796;2023-12-14T11:42:18;99091.34;;;11.32;100.00
10668;BME280;5382;42.136;24.796;2023-12-14T11:44:46;99080.03;;;11.30;100.00
10668;BME280;5382;42.136;24.796;2023-12-14T11:47:14;99079.97;;;11.51;100.00
10668;BME280;5382;42.136;24.796;2023-12-14T11:49:43;99090.97;;;11.56;100.00
10668;BME280;5382;42.136;24.796;2023-12-14T11:52:10;99093.41;;;11.78;100.00
10668;BME280;5382;42.136;24.796;2023-12-14T11:54:37;99086.28;;;11.79;100.00
10668;BME280;5382;42.136;24.796;2023-12-14T11:57:04;99088.38;;;11.75;100.00
10668;BME280;5382;42.136;24.796;2023-12-14T11:59:35;99098.41;;;11.72;100.00
10668;BME280;5382;42.136;24.796;2023-12-14T12:02:02;99086.69;;;11.65;100.00
10668;BME280;5382;42.136;24.796;2023-12-14T12:04:31;99083.78;;;11.77;100.00
10668;BME280;5382;42.136;24.796;2023-12-14T12:07:02;99067.31;;;11.84;100.00
10668;BME280;5382;42.136;24.796;2023-12-14T12:09:34;99077.97;;;11.93;100.00
10668;BME280;5382;42.136;24.796;2023-12-14T12:12:01;99085.09;;;11.93;100.00
10668;BME280;5382;42.136;24.796;2023-12-14T12:14:29;99083.41;;;12.02;100.00
10668;BME280;5382;42.136;24.796;2023-12-14T12:16:56;99066.94;;;11.98;100.00
10668;BME280;5382;42.136;24.796;2023-12-14T12:19:23;99080.72;;;12.31;100.00
10668;BME280;5382;42.136;24.796;2023-12-14T12:21:52;99086.84;;;12.41;100.00
10668;BME280;5382;42.136;24.796;2023-12-14T12:24:18;99085.06;;;12.32;100.00
10668;BME280;5382;42.136;24.796;2023-12-14T12:26:46;99092.03;;;12.52;100.00
10668;BME280;5382;42.136;24.796;2023-12-14T12:29:13;99078.19;;;12.49;100.00
10668;BME280;5382;42.136;24.796;2023-12-14T12:31:39;99075.41;;;12.50;100.00
10668;BME280;5382;42.136;24.796;2023-12-14T12:34:08;99079.47;;;12.44;100.00
10668;BME280;5382;42.136;24.796;2023-12-14T12:36:35;99065.50;;;12.33;100.00
10668;BME280;5382;42.136;24.796;2023-12-14T12:39:03;99073.78;;;12.00;100.00
10668;BME280;5382;42.136;24.796;2023-12-14T12:41:31;99079.03;;;11.81;100.00
10668;BME280;5382;42.136;24.796;2023-12-14T12:43:59;99085.59;;;11.67;100.00
10668;BME280;5382;42.136;24.796;2023-12-14T12:46:31;99090.44;;;11.72;100.00
10668;BME280;5382;42.136;24.796;2023-12-14T12:48:59;99084.31;;;11.62;100.00
10668;BME280;5382;42.136;24.796;2023-12-14T12:51:26;99089.63;;;11.62;100.00
10668;BME280;5382;42.136;24.796;2023-12-14T12:53:54;99077.47;;;11.49;100.00
10668;BME280;5382;42.136;24.796;2023-12-14T12:56:22;99087.22;;;11.49;100.00
10668;BME280;5382;42.136;24.796;2023-12-14T12:58:49;99087.63;;;11.44;100.00
10668;BME280;5382;42.136;24.796;2023-12-14T13:01:19;99086.84;;;11.23;100.00